sensor_id;sensor_type;location;lat;lon;timestamp;P1;durP1;ratioP1;P2;durP2;ratioP2
16665;SDS011;8446;50.998;6.250;2024-01-25T00:02:07;28.10;;;5.40;;
16665;SDS011;8446;50.998;6.250;2024-01-25T00:04:38;44.77;;;6.37;;
16665;SDS011;8446;50.998;6.250;2024-01-25T00:07:10;33.63;;;5.50;;
16665;SDS011;8446;50.998;6.250;2024-01-25T00:09:42;45.67;;;6.97;;
16665;SDS011;8446;50.998;6.250;2024-01-25T00:12:14;33.97;;;5.57;;
16665;SDS011;8446;50.998;6.250;2024-01-25T00:14:46;34.17;;;6.73;;
16665;SDS011;8446;50.998;6.250;2024-01-25T00:17:19;46.47;;;5.33;;
16665;SDS011;8446;50.998;6.250;2024-01-25T00:19:51;37.37;;;5.13;;
16665;SDS011;8446;50.998;6.250;2024-01-25T00:22:22;33.43;;;5.10;;
16665;SDS011;8446;50.998;6.250;2024-01-25T00:24:54;42.27;;;7.33;;
16665;SDS011;8446;50.998;6.250;2024-01-25T00:27:26;26.50;;;6.17;;
16665;SDS011;8446;50.998;6.250;2024-01-25T00:29:57;36.07;;;5.50;;
16665;SDS011;8446;50.998;6.250;2024-01-25T00:32:31;29.93;;;5.20;;
16665;SDS011;8446;50.998;6.250;2024-01-25T00:35:03;37.33;;;7.10;;
16665;SDS011;8446;50.998;6.250;2024-01-25T00:37:35;39.57;;;5.10;;
16665;SDS011;8446;50.998;6.250;2024-01-25T00:40:08;36.83;;;6.50;;
16665;SDS011;8446;50.998;6.250;2024-01-25T00:42:41;28.33;;;5.27;;
16665;SDS011;8446;50.998;6.250;2024-01-25T00:45:14;33.50;;;6.80;;
16665;SDS011;8446;50.998;6.250;2024-01-25T00:47:48;30.33;;;4.70;;
16665;SDS011;8446;50.998;6.250;2024-01-25T00:50:21;30.43;;;5.60;;
16665;SDS011;8446;50.998;6.250;2024-01-25T00:52:54;33.77;;;5.17;;
16665;SDS011;8446;50.998;6.250;2024-01-25T00:55:26;39.80;;;5.70;;
16665;SDS011;8446;50.998;6.250;2024-01-25T00:57:59;29.23;;;7.50;;
16665;SDS011;8446;50.998;6.250;2024-01-25T01:00:31;25.27;;;6.40;;
16665;SDS011;8446;50.998;6.250;2024-01-25T01:03:05;36.50;;;5.70;;
16665;SDS011;8446;50.998;6.250;2024-01-25T01:05:38;31.00;;;4.70;;
16665;SDS011;8446;50.998;6.250;2024-01-25T01:08:11;26.50;;;4.43;;
16665;SDS011;8446;50.998;6.250;2024-01-25T01:10:43;40.40;;;5.00;;
16665;SDS011;8446;50.998;6.250;2024-01-25T01:13:15;34.37;;;5.90;;
16665;SDS011;8446;50.998;6.250;2024-01-25T01:15:46;41.33;;;6.80;;
16665;SDS011;8446;50.998;6.250;2024-01-25T01:18:19;44.67;;;4.90;;
16665;SDS011;8446;50.998;6.250;2024-01-25T01:20:51;36.00;;;6.00;;
16665;SDS011;8446;50.998;6.250;2024-01-25T01:23:23;33.20;;;4.60;;
16665;SDS011;8446;50.998;6.250;2024-01-25T01:25:55;30.60;;;5.33;;
16665;SDS011;8446;50.998;6.250;2024-01-25T01:28:26;23.30;;;5.50;;
16665;SDS011;8446;50.998;6.250;2024-01-25T01:30:58;35.03;;;6.30;;
16665;SDS011;8446;50.998;6.250;2024-01-25T01:33:31;47.63;;;6.13;;
16665;SDS011;8446;50.998;6.250;2024-01-25T01:36:03;32.80;;;6.53;;
16665;SDS011;8446;50.998;6.250;2024-01-25T01:38:35;32.13;;;6.23;;
16665;SDS011;8446;50.998;6.250;2024-01-25T01:41:07;37.63;;;5.40;;
16665;SDS011;8446;50.998;6.250;2024-01-25T01:43:40;32.73;;;4.23;;
16665;SDS011;8446;50.998;6.250;2024-01-25T01:46:15;38.07;;;6.07;;
16665;SDS011;8446;50.998;6.250;2024-01-25T01:48:58;33.83;;;5.97;;
16665;SDS011;8446;50.998;6.250;2024-01-25T01:51:30;29.10;;;6.20;;
16665;SDS011;8446;50.998;6.250;2024-01-25T01:54:02;33.53;;;5.77;;
16665;SDS011;8446;50.998;6.250;2024-01-25T01:56:36;26.27;;;5.27;;
16665;SDS011;8446;50.998;6.250;2024-01-25T01:59:10;29.93;;;6.00;;
16665;SDS011;8446;50.998;6.250;2024-01-25T02:01:42;40.00;;;7.43;;
16665;SDS011;8446;50.998;6.250;2024-01-25T02:04:15;42.93;;;5.63;;
16665;SDS011;8446;50.998;6.250;2024-01-25T02:06:47;36.40;;;6.40;;
16665;SDS011;8446;50.998;6.250;2024-01-25T02:09:18;41.47;;;5.87;;
16665;SDS011;8446;50.998;6.250;2024-01-25T02:11:58;26.47;;;5.73;;
16665;SDS011;8446;50.998;6.250;2024-01-25T02:14:31;22.17;;;4.37;;
16665;SDS011;8446;50.998;6.250;2024-01-25T02:17:02;37.37;;;5.80;;
16665;SDS011;8446;50.998;6.250;2024-01-25T02:19:36;28.63;;;5.20;;
16665;SDS011;8446;50.998;6.250;2024-01-25T02:22:08;42.53;;;6.27;;
16665;SDS011;8446;50.998;6.250;2024-01-25T02:24:41;30.97;;;5.03;;
16665;SDS011;8446;50.998;6.250;2024-01-25T02:27:12;31.77;;;5.83;;
16665;SDS011;8446;50.998;6.250;2024-01-25T02:29:44;31.00;;;5.47;;
16665;SDS011;8446;50.998;6.250;2024-01-25T02:35:43;45.90;;;5.10;;
16665;SDS011;8446;50.998;6.250;2024-01-25T02:38:15;34.07;;;5.67;;
16665;SDS011;8446;50.998;6.250;2024-01-25T02:40:48;35.53;;;6.07;;
16665;SDS011;8446;50.998;6.250;2024-01-25T02:43:20;26.03;;;4.80;;
16665;SDS011;8446;50.998;6.250;2024-01-25T02:45:52;47.37;;;6.23;;
16665;SDS011;8446;50.998;6.250;2024-01-25T02:48:24;40.47;;;6.10;;
16665;SDS011;8446;50.998;6.250;2024-01-25T02:50:55;34.60;;;5.70;;
16665;SDS011;8446;50.998;6.250;2024-01-25T02:53:27;51.30;;;6.10;;
16665;SDS011;8446;50.998;6.250;2024-01-25T02:56:00;32.50;;;6.40;;
16665;SDS011;8446;50.998;6.250;2024-01-25T02:58:32;41.20;;;6.47;;
16665;SDS011;8446;50.998;6.250;2024-01-25T03:01:04;40.57;;;5.80;;
16665;SDS011;8446;50.998;6.250;2024-01-25T03:03:35;34.77;;;5.70;;
16665;SDS011;8446;50.998;6.250;2024-01-25T03:06:09;44.90;;;5.80;;
16665;SDS011;8446;50.998;6.250;2024-01-25T03:08:40;43.43;;;7.07;;
16665;SDS011;8446;50.998;6.250;2024-01-25T03:11:13;32.80;;;5.10;;
16665;SDS011;8446;50.998;6.250;2024-01-25T03:13:45;31.67;;;5.17;;
16665;SDS011;8446;50.998;6.250;2024-01-25T03:16:17;43.20;;;5.70;;
16665;SDS011;8446;50.998;6.250;2024-01-25T03:18:48;40.20;;;5.57;;
16665;SDS011;8446;50.998;6.250;2024-01-25T03:21:20;24.57;;;5.83;;
16665;SDS011;8446;50.998;6.250;2024-01-25T03:23:52;40.72;;;4.57;;
16665;SDS011;8446;50.998;6.250;2024-01-25T03:26:26;29.43;;;4.97;;
16665;SDS011;8446;50.998;6.250;2024-01-25T03:28:58;23.83;;;4.43;;
16665;SDS011;8446;50.998;6.250;2024-01-25T03:31:30;30.67;;;7.07;;
16665;SDS011;8446;50.998;6.250;2024-01-25T03:34:01;26.67;;;5.30;;
16665;SDS011;8446;50.998;6.250;2024-01-25T03:36:33;35.13;;;5.85;;
16665;SDS011;8446;50.998;6.250;2024-01-25T03:39:06;42.27;;;4.53;;
16665;SDS011;8446;50.998;6.250;2024-01-25T03:41:39;28.83;;;5.27;;
16665;SDS011;8446;50.998;6.250;2024-01-25T03:44:11;29.67;;;5.67;;
16665;SDS011;8446;50.998;6.250;2024-01-25T03:46:43;35.00;;;7.68;;
16665;SDS011;8446;50.998;6.250;2024-01-25T03:49:14;38.37;;;5.93;;
16665;SDS011;8446;50.998;6.250;2024-01-25T03:51:46;29.43;;;4.87;;
16665;SDS011;8446;50.998;6.250;2024-01-25T03:54:18;27.47;;;5.80;;
16665;SDS011;8446;50.998;6.250;2024-01-25T03:56:51;20.80;;;5.38;;
16665;SDS011;8446;50.998;6.250;2024-01-25T03:59:22;33.33;;;5.03;;
16665;SDS011;8446;50.998;6.250;2024-01-25T04:01:54;21.30;;;5.30;;
16665;SDS011;8446;50.998;6.250;2024-01-25T04:04:26;44.88;;;7.35;;
16665;SDS011;8446;50.998;6.250;2024-01-25T04:06:58;26.13;;;5.40;;
16665;SDS011;8446;50.998;6.250;2024-01-25T04:09:29;41.40;;;6.30;;
16665;SDS011;8446;50.998;6.250;2024-01-25T04:12:02;23.13;;;6.55;;
16665;SDS011;8446;50.998;6.250;2024-01-25T04:14:35;27.85;;;5.65;;
16665;SDS011;8446;50.998;6.250;2024-01-25T04:17:06;41.28;;;6.07;;
16665;SDS011;8446;50.998;6.250;2024-01-25T04:19:38;24.38;;;4.15;;
16665;SDS011;8446;50.998;6.250;2024-01-25T04:22:10;33.88;;;5.57;;
16665;SDS011;8446;50.998;6.250;2024-01-25T04:24:41;36.03;;;4.85;;
16665;SDS011;8446;50.998;6.250;2024-01-25T04:27:15;28.88;;;5.13;;
16665;SDS011;8446;50.998;6.250;2024-01-25T04:29:47;28.45;;;5.78;;
16665;SDS011;8446;50.998;6.250;2024-01-25T04:32:19;30.92;;;5.00;;
16665;SDS011;8446;50.998;6.250;2024-01-25T04:34:50;38.72;;;5.80;;
16665;SDS011;8446;50.998;6.250;2024-01-25T04:37:22;29.67;;;7.07;;
16665;SDS011;8446;50.998;6.250;2024-01-25T04:39:54;41.75;;;6.95;;
16665;SDS011;8446;50.998;6.250;2024-01-25T04:42:27;38.83;;;5.75;;
16665;SDS011;8446;50.998;6.250;2024-01-25T04:44:59;41.17;;;6.80;;
16665;SDS011;8446;50.998;6.250;2024-01-25T04:47:30;49.65;;;6.97;;
16665;SDS011;8446;50.998;6.250;2024-01-25T04:50:02;37.35;;;4.82;;
16665;SDS011;8446;50.998;6.250;2024-01-25T04:52:34;34.55;;;5.40;;
16665;SDS011;8446;50.998;6.250;2024-01-25T04:55:06;23.63;;;5.43;;
16665;SDS011;8446;50.998;6.250;2024-01-25T04:57:40;44.92;;;6.18;;
16665;SDS011;8446;50.998;6.250;2024-01-25T05:00:12;37.00;;;5.93;;
16665;SDS011;8446;50.998;6.250;2024-01-25T05:02:44;41.83;;;4.93;;
16665;SDS011;8446;50.998;6.250;2024-01-25T05:05:16;33.78;;;4.78;;
16665;SDS011;8446;50.998;6.250;2024-01-25T05:07:48;41.13;;;6.30;;
16665;SDS011;8446;50.998;6.250;2024-01-25T05:10:19;20.35;;;4.65;;
16665;SDS011;8446;50.998;6.250;2024-01-25T05:12:54;30.08;;;5.03;;
16665;SDS011;8446;50.998;6.250;2024-01-25T05:15:26;34.75;;;5.07;;
16665;SDS011;8446;50.998;6.250;2024-01-25T05:17:57;25.90;;;6.60;;
16665;SDS011;8446;50.998;6.250;2024-01-25T05:20:29;23.15;;;4.95;;
16665;SDS011;8446;50.998;6.250;2024-01-25T05:23:04;40.63;;;6.15;;
16665;SDS011;8446;50.998;6.250;2024-01-25T05:25:36;31.38;;;5.63;;
16665;SDS011;8446;50.998;6.250;2024-01-25T05:28:09;36.20;;;5.07;;
16665;SDS011;8446;50.998;6.250;2024-01-25T05:30:40;37.92;;;6.70;;
16665;SDS011;8446;50.998;6.250;2024-01-25T05:33:12;38.60;;;6.28;;
16665;SDS011;8446;50.998;6.250;2024-01-25T05:35:44;34.15;;;5.53;;
16665;SDS011;8446;50.998;6.250;2024-01-25T05:38:16;59.65;;;5.82;;
16665;SDS011;8446;50.998;6.250;2024-01-25T05:40:47;48.45;;;6.68;;
16665;SDS011;8446;50.998;6.250;2024-01-25T05:43:20;34.10;;;6.35;;
16665;SDS011;8446;50.998;6.250;2024-01-25T05:45:52;42.50;;;4.82;;
16665;SDS011;8446;50.998;6.250;2024-01-25T05:48:24;26.75;;;7.30;;
16665;SDS011;8446;50.998;6.250;2024-01-25T05:50:56;24.98;;;6.75;;
16665;SDS011;8446;50.998;6.250;2024-01-25T05:53:27;37.03;;;5.30;;
16665;SDS011;8446;50.998;6.250;2024-01-25T05:55:59;28.98;;;6.05;;
16665;SDS011;8446;50.998;6.250;2024-01-25T05:58:32;43.80;;;6.53;;
16665;SDS011;8446;50.998;6.250;2024-01-25T06:01:04;38.03;;;5.45;;
16665;SDS011;8446;50.998;6.250;2024-01-25T06:03:36;38.65;;;5.10;;
16665;SDS011;8446;50.998;6.250;2024-01-25T06:06:07;37.00;;;4.90;;
16665;SDS011;8446;50.998;6.250;2024-01-25T06:08:39;34.50;;;6.65;;
16665;SDS011;8446;50.998;6.250;2024-01-25T06:11:11;35.42;;;6.57;;
16665;SDS011;8446;50.998;6.250;2024-01-25T06:13:44;39.45;;;5.72;;
16665;SDS011;8446;50.998;6.250;2024-01-25T06:16:15;31.98;;;6.00;;
16665;SDS011;8446;50.998;6.250;2024-01-25T06:18:47;33.35;;;5.80;;
16665;SDS011;8446;50.998;6.250;2024-01-25T06:21:19;45.05;;;5.80;;
16665;SDS011;8446;50.998;6.250;2024-01-25T06:23:50;39.15;;;6.53;;
16665;SDS011;8446;50.998;6.250;2024-01-25T06:26:22;33.00;;;6.82;;
16665;SDS011;8446;50.998;6.250;2024-01-25T06:28:55;45.13;;;7.00;;
16665;SDS011;8446;50.998;6.250;2024-01-25T06:31:27;33.53;;;7.25;;
16665;SDS011;8446;50.998;6.250;2024-01-25T06:33:59;43.05;;;5.65;;
16665;SDS011;8446;50.998;6.250;2024-01-25T06:36:31;39.10;;;5.53;;
16665;SDS011;8446;50.998;6.250;2024-01-25T06:39:02;51.55;;;7.50;;
16665;SDS011;8446;50.998;6.250;2024-01-25T06:41:35;35.05;;;6.63;;
16665;SDS011;8446;50.998;6.250;2024-01-25T06:44:08;51.25;;;6.00;;
16665;SDS011;8446;50.998;6.250;2024-01-25T06:46:40;35.15;;;6.32;;
16665;SDS011;8446;50.998;6.250;2024-01-25T06:49:12;48.03;;;6.75;;
16665;SDS011;8446;50.998;6.250;2024-01-25T06:51:44;31.65;;;5.72;;
16665;SDS011;8446;50.998;6.250;2024-01-25T06:54:16;33.10;;;6.13;;
16665;SDS011;8446;50.998;6.250;2024-01-25T06:56:48;23.98;;;5.22;;
16665;SDS011;8446;50.998;6.250;2024-01-25T06:59:22;37.92;;;6.70;;
16665;SDS011;8446;50.998;6.250;2024-01-25T07:01:54;37.63;;;5.90;;
16665;SDS011;8446;50.998;6.250;2024-01-25T07:04:26;31.83;;;5.65;;
16665;SDS011;8446;50.998;6.250;2024-01-25T07:06:58;34.15;;;6.70;;
16665;SDS011;8446;50.998;6.250;2024-01-25T07:09:30;31.83;;;6.68;;
16665;SDS011;8446;50.998;6.250;2024-01-25T07:12:02;35.97;;;6.10;;
16665;SDS011;8446;50.998;6.250;2024-01-25T07:14:35;36.78;;;7.85;;
16665;SDS011;8446;50.998;6.250;2024-01-25T07:17:07;43.88;;;7.97;;
16665;SDS011;8446;50.998;6.250;2024-01-25T07:19:38;40.72;;;6.68;;
16665;SDS011;8446;50.998;6.250;2024-01-25T07:22:10;34.70;;;7.85;;
16665;SDS011;8446;50.998;6.250;2024-01-25T07:24:44;47.08;;;6.85;;
16665;SDS011;8446;50.998;6.250;2024-01-25T07:27:15;37.97;;;6.82;;
16665;SDS011;8446;50.998;6.250;2024-01-25T07:29:48;35.88;;;6.20;;
16665;SDS011;8446;50.998;6.250;2024-01-25T07:32:20;43.30;;;6.57;;
16665;SDS011;8446;50.998;6.250;2024-01-25T07:34:54;21.25;;;5.40;;
16665;SDS011;8446;50.998;6.250;2024-01-25T07:37:25;26.80;;;6.72;;
16665;SDS011;8446;50.998;6.250;2024-01-25T07:39:57;43.00;;;5.80;;
16665;SDS011;8446;50.998;6.250;2024-01-25T07:42:28;41.47;;;6.97;;
16665;SDS011;8446;50.998;6.250;2024-01-25T07:45:01;38.25;;;6.18;;
16665;SDS011;8446;50.998;6.250;2024-01-25T07:47:33;44.08;;;5.85;;
16665;SDS011;8446;50.998;6.250;2024-01-25T07:50:05;46.78;;;7.55;;
16665;SDS011;8446;50.998;6.250;2024-01-25T07:52:38;51.33;;;7.25;;
16665;SDS011;8446;50.998;6.250;2024-01-25T07:55:10;42.70;;;7.68;;
16665;SDS011;8446;50.998;6.250;2024-01-25T07:57:42;49.75;;;7.05;;
16665;SDS011;8446;50.998;6.250;2024-01-25T08:00:15;35.90;;;7.43;;
16665;SDS011;8446;50.998;6.250;2024-01-25T08:02:47;45.17;;;6.57;;
16665;SDS011;8446;50.998;6.250;2024-01-25T08:05:19;34.53;;;6.78;;
16665;SDS011;8446;50.998;6.250;2024-01-25T08:07:51;43.28;;;6.65;;
16665;SDS011;8446;50.998;6.250;2024-01-25T08:10:23;35.80;;;8.20;;
16665;SDS011;8446;50.998;6.250;2024-01-25T08:12:54;55.53;;;7.22;;
16665;SDS011;8446;50.998;6.250;2024-01-25T08:15:28;41.10;;;8.18;;
16665;SDS011;8446;50.998;6.250;2024-01-25T08:18:00;31.98;;;6.72;;
16665;SDS011;8446;50.998;6.250;2024-01-25T08:20:32;34.88;;;6.55;;
16665;SDS011;8446;50.998;6.250;2024-01-25T08:23:04;35.15;;;5.97;;
16665;SDS011;8446;50.998;6.250;2024-01-25T08:25:38;52.40;;;7.20;;
16665;SDS011;8446;50.998;6.250;2024-01-25T08:28:10;51.47;;;8.32;;
16665;SDS011;8446;50.998;6.250;2024-01-25T08:30:43;42.70;;;7.20;;
16665;SDS011;8446;50.998;6.250;2024-01-25T08:33:15;44.47;;;7.25;;
16665;SDS011;8446;50.998;6.250;2024-01-25T08:35:47;42.08;;;7.35;;
16665;SDS011;8446;50.998;6.250;2024-01-25T08:38:18;35.83;;;6.80;;
16665;SDS011;8446;50.998;6.250;2024-01-25T08:40:50;48.95;;;8.32;;
16665;SDS011;8446;50.998;6.250;2024-01-25T08:43:22;41.60;;;7.80;;
16665;SDS011;8446;50.998;6.250;2024-01-25T08:45:55;69.28;;;8.68;;
16665;SDS011;8446;50.998;6.250;2024-01-25T08:48:27;41.67;;;7.93;;
16665;SDS011;8446;50.998;6.250;2024-01-25T08:50:58;42.42;;;10.50;;
16665;SDS011;8446;50.998;6.250;2024-01-25T08:53:30;61.10;;;10.17;;
16665;SDS011;8446;50.998;6.250;2024-01-25T08:56:02;76.23;;;11.10;;
16665;SDS011;8446;50.998;6.250;2024-01-25T08:58:34;69.65;;;12.32;;
16665;SDS011;8446;50.998;6.250;2024-01-25T09:01:08;73.10;;;10.13;;
16665;SDS011;8446;50.998;6.250;2024-01-25T09:03:39;51.77;;;11.77;;
16665;SDS011;8446;50.998;6.250;2024-01-25T09:06:11;60.83;;;12.00;;
16665;SDS011;8446;50.998;6.250;2024-01-25T09:08:45;65.83;;;11.77;;
16665;SDS011;8446;50.998;6.250;2024-01-25T09:11:17;46.03;;;11.10;;
16665;SDS011;8446;50.998;6.250;2024-01-25T09:13:50;60.63;;;12.00;;
16665;SDS011;8446;50.998;6.250;2024-01-25T09:16:23;70.03;;;12.77;;
16665;SDS011;8446;50.998;6.250;2024-01-25T09:18:55;53.90;;;13.93;;
16665;SDS011;8446;50.998;6.250;2024-01-25T09:21:26;57.73;;;13.60;;
16665;SDS011;8446;50.998;6.250;2024-01-25T09:23:58;63.20;;;15.23;;
16665;SDS011;8446;50.998;6.250;2024-01-25T09:26:31;63.97;;;14.20;;
16665;SDS011;8446;50.998;6.250;2024-01-25T09:29:02;52.60;;;15.67;;
16665;SDS011;8446;50.998;6.250;2024-01-25T09:31:36;55.43;;;15.60;;
16665;SDS011;8446;50.998;6.250;2024-01-25T09:34:07;54.77;;;13.70;;
16665;SDS011;8446;50.998;6.250;2024-01-25T09:36:39;68.43;;;15.57;;
16665;SDS011;8446;50.998;6.250;2024-01-25T09:39:11;43.33;;;14.53;;
16665;SDS011;8446;50.998;6.250;2024-01-25T09:41:44;51.93;;;14.93;;
16665;SDS011;8446;50.998;6.250;2024-01-25T09:44:16;46.10;;;13.30;;
16665;SDS011;8446;50.998;6.250;2024-01-25T09:46:50;51.70;;;14.47;;
16665;SDS011;8446;50.998;6.250;2024-01-25T09:49:22;49.93;;;13.50;;
16665;SDS011;8446;50.998;6.250;2024-01-25T09:51:54;59.13;;;15.83;;
16665;SDS011;8446;50.998;6.250;2024-01-25T09:54:27;67.03;;;15.70;;
16665;SDS011;8446;50.998;6.250;2024-01-25T09:56:59;50.50;;;15.43;;
16665;SDS011;8446;50.998;6.250;2024-01-25T09:59:31;56.83;;;16.50;;
16665;SDS011;8446;50.998;6.250;2024-01-25T10:02:05;60.27;;;16.07;;
16665;SDS011;8446;50.998;6.250;2024-01-25T10:04:36;46.67;;;14.60;;
16665;SDS011;8446;50.998;6.250;2024-01-25T10:07:08;47.30;;;14.00;;
16665;SDS011;8446;50.998;6.250;2024-01-25T10:09:40;49.53;;;13.37;;
16665;SDS011;8446;50.998;6.250;2024-01-25T10:12:12;42.57;;;15.00;;
16665;SDS011;8446;50.998;6.250;2024-01-25T10:14:44;44.47;;;14.47;;
16665;SDS011;8446;50.998;6.250;2024-01-25T10:17:17;48.97;;;12.90;;
16665;SDS011;8446;50.998;6.250;2024-01-25T10:19:49;36.67;;;11.57;;
16665;SDS011;8446;50.998;6.250;2024-01-25T10:22:21;44.23;;;14.07;;
16665;SDS011;8446;50.998;6.250;2024-01-25T10:24:53;25.40;;;10.50;;
16665;SDS011;8446;50.998;6.250;2024-01-25T10:27:25;35.43;;;11.77;;
16665;SDS011;8446;50.998;6.250;2024-01-25T10:29:56;32.60;;;11.07;;
16665;SDS011;8446;50.998;6.250;2024-01-25T10:32:29;41.60;;;11.00;;
16665;SDS011;8446;50.998;6.250;2024-01-25T10:35:01;36.83;;;9.73;;
16665;SDS011;8446;50.998;6.250;2024-01-25T10:37:34;31.63;;;10.00;;
16665;SDS011;8446;50.998;6.250;2024-01-25T10:40:09;36.23;;;11.77;;
16665;SDS011;8446;50.998;6.250;2024-01-25T10:42:41;36.73;;;10.30;;
16665;SDS011;8446;50.998;6.250;2024-01-25T10:45:13;30.60;;;11.07;;
16665;SDS011;8446;50.998;6.250;2024-01-25T10:47:49;41.80;;;11.23;;
16665;SDS011;8446;50.998;6.250;2024-01-25T10:50:20;32.93;;;11.17;;
16665;SDS011;8446;50.998;6.250;2024-01-25T10:52:54;30.10;;;9.53;;
16665;SDS011;8446;50.998;6.250;2024-01-25T10:55:27;45.23;;;9.60;;
16665;SDS011;8446;50.998;6.250;2024-01-25T10:57:59;33.43;;;10.07;;
16665;SDS011;8446;50.998;6.250;2024-01-25T11:00:31;39.37;;;11.60;;
16665;SDS011;8446;50.998;6.250;2024-01-25T11:03:05;32.63;;;10.37;;
16665;SDS011;8446;50.998;6.250;2024-01-25T11:05:37;33.43;;;10.60;;
16665;SDS011;8446;50.998;6.250;2024-01-25T11:08:16;25.17;;;9.53;;
16665;SDS011;8446;50.998;6.250;2024-01-25T11:10:50;32.67;;;10.20;;
16665;SDS011;8446;50.998;6.250;2024-01-25T11:13:23;31.93;;;9.90;;
16665;SDS011;8446;50.998;6.250;2024-01-25T11:15:56;40.47;;;11.00;;
16665;SDS011;8446;50.998;6.250;2024-01-25T11:18:30;35.93;;;10.07;;
16665;SDS011;8446;50.998;6.250;2024-01-25T11:21:02;29.60;;;9.37;;
16665;SDS011;8446;50.998;6.250;2024-01-25T11:23:36;32.20;;;8.83;;
16665;SDS011;8446;50.998;6.250;2024-01-25T11:26:15;39.33;;;9.73;;
16665;SDS011;8446;50.998;6.250;2024-01-25T11:28:46;26.23;;;7.43;;
16665;SDS011;8446;50.998;6.250;2024-01-25T11:31:18;26.57;;;8.03;;
16665;SDS011;8446;50.998;6.250;2024-01-25T11:33:52;25.40;;;8.23;;
16665;SDS011;8446;50.998;6.250;2024-01-25T11:36:27;33.53;;;9.07;;
16665;SDS011;8446;50.998;6.250;2024-01-25T11:39:00;28.83;;;8.17;;
16665;SDS011;8446;50.998;6.250;2024-01-25T11:41:31;46.70;;;10.00;;
16665;SDS011;8446;50.998;6.250;2024-01-25T11:44:04;31.23;;;8.03;;
16665;SDS011;8446;50.998;6.250;2024-01-25T11:46:35;32.00;;;8.90;;
16665;SDS011;8446;50.998;6.250;2024-01-25T11:49:09;23.90;;;6.90;;
16665;SDS011;8446;50.998;6.250;2024-01-25T11:51:40;24.97;;;7.93;;
16665;SDS011;8446;50.998;6.250;2024-01-25T11:54:12;35.03;;;9.40;;
16665;SDS011;8446;50.998;6.250;2024-01-25T11:56:44;29.13;;;8.20;;
16665;SDS011;8446;50.998;6.250;2024-01-25T11:59:16;27.20;;;8.77;;
16665;SDS011;8446;50.998;6.250;2024-01-25T12:01:48;23.93;;;7.00;;
16665;SDS011;8446;50.998;6.250;2024-01-25T12:04:21;28.23;;;7.90;;
16665;SDS011;8446;50.998;6.250;2024-01-25T12:06:55;34.33;;;8.40;;
16665;SDS011;8446;50.998;6.250;2024-01-25T12:09:27;30.87;;;7.47;;
16665;SDS011;8446;50.998;6.250;2024-01-25T12:12:00;21.80;;;6.73;;
16665;SDS011;8446;50.998;6.250;2024-01-25T12:14:31;28.30;;;7.40;;
16665;SDS011;8446;50.998;6.250;2024-01-25T12:17:05;44.70;;;8.30;;
16665;SDS011;8446;50.998;6.250;2024-01-25T12:19:39;23.47;;;7.13;;
16665;SDS011;8446;50.998;6.250;2024-01-25T12:22:11;35.27;;;7.10;;
16665;SDS011;8446;50.998;6.250;2024-01-25T12:24:42;30.57;;;7.33;;
16665;SDS011;8446;50.998;6.250;2024-01-25T12:27:16;31.83;;;6.67;;
16665;SDS011;8446;50.998;6.250;2024-01-25T12:29:47;22.20;;;6.37;;
16665;SDS011;8446;50.998;6.250;2024-01-25T12:32:22;26.80;;;5.90;;
16665;SDS011;8446;50.998;6.250;2024-01-25T12:34:55;27.63;;;6.53;;
16665;SDS011;8446;50.998;6.250;2024-01-25T12:37:28;26.97;;;7.27;;
16665;SDS011;8446;50.998;6.250;2024-01-25T12:40:00;33.63;;;6.50;;
16665;SDS011;8446;50.998;6.250;2024-01-25T12:42:33;29.73;;;6.43;;
16665;SDS011;8446;50.998;6.250;2024-01-25T12:45:05;25.90;;;6.47;;
16665;SDS011;8446;50.998;6.250;2024-01-25T12:47:37;39.50;;;6.57;;
16665;SDS011;8446;50.998;6.250;2024-01-25T12:50:10;25.27;;;6.00;;
16665;SDS011;8446;50.998;6.250;2024-01-25T12:52:41;29.80;;;6.57;;
16665;SDS011;8446;50.998;6.250;2024-01-25T12:55:13;23.03;;;5.70;;
16665;SDS011;8446;50.998;6.250;2024-01-25T12:57:45;21.70;;;5.20;;
16665;SDS011;8446;50.998;6.250;2024-01-25T13:00:17;25.60;;;6.00;;
16665;SDS011;8446;50.998;6.250;2024-01-25T13:02:49;33.27;;;6.20;;
16665;SDS011;8446;50.998;6.250;2024-01-25T13:05:22;20.93;;;4.57;;
16665;SDS011;8446;50.998;6.250;2024-01-25T13:07:54;24.90;;;5.87;;
16665;SDS011;8446;50.998;6.250;2024-01-25T13:10:26;29.27;;;5.73;;
16665;SDS011;8446;50.998;6.250;2024-01-25T13:12:58;32.83;;;6.07;;
16665;SDS011;8446;50.998;6.250;2024-01-25T13:15:29;23.23;;;5.40;;
16665;SDS011;8446;50.998;6.250;2024-01-25T13:18:02;21.90;;;5.20;;
16665;SDS011;8446;50.998;6.250;2024-01-25T13:20:35;23.23;;;5.33;;
16665;SDS011;8446;50.998;6.250;2024-01-25T13:23:07;19.50;;;5.63;;
16665;SDS011;8446;50.998;6.250;2024-01-25T13:25:38;26.57;;;4.97;;
16665;SDS011;8446;50.998;6.250;2024-01-25T13:28:10;25.70;;;6.40;;
16665;SDS011;8446;50.998;6.250;2024-01-25T13:30:42;21.87;;;4.87;;
16665;SDS011;8446;50.998;6.250;2024-01-25T13:33:14;25.13;;;5.43;;
16665;SDS011;8446;50.998;6.250;2024-01-25T13:35:47;22.37;;;5.10;;
16665;SDS011;8446;50.998;6.250;2024-01-25T13:38:18;18.90;;;4.67;;
16665;SDS011;8446;50.998;6.250;2024-01-25T13:40:50;31.17;;;5.93;;
16665;SDS011;8446;50.998;6.250;2024-01-25T13:43:22;29.73;;;4.67;;
16665;SDS011;8446;50.998;6.250;2024-01-25T13:45:54;24.80;;;4.27;;
16665;SDS011;8446;50.998;6.250;2024-01-25T13:48:26;18.63;;;4.40;;
16665;SDS011;8446;50.998;6.250;2024-01-25T13:50:59;12.30;;;4.50;;
16665;SDS011;8446;50.998;6.250;2024-01-25T13:53:30;13.90;;;4.20;;
16665;SDS011;8446;50.998;6.250;2024-01-25T13:56:02;24.90;;;4.60;;
16665;SDS011;8446;50.998;6.250;2024-01-25T13:58:34;17.07;;;4.07;;
16665;SDS011;8446;50.998;6.250;2024-01-25T14:01:06;33.43;;;4.77;;
16665;SDS011;8446;50.998;6.250;2024-01-25T14:03:38;13.43;;;4.23;;
16665;SDS011;8446;50.998;6.250;2024-01-25T14:06:11;20.23;;;5.00;;
16665;SDS011;8446;50.998;6.250;2024-01-25T14:08:43;26.90;;;4.80;;
16665;SDS011;8446;50.998;6.250;2024-01-25T14:11:15;16.90;;;3.80;;
16665;SDS011;8446;50.998;6.250;2024-01-25T14:13:47;22.07;;;4.47;;
16665;SDS011;8446;50.998;6.250;2024-01-25T14:16:18;18.60;;;4.23;;
16665;SDS011;8446;50.998;6.250;2024-01-25T14:18:50;16.23;;;4.33;;
16665;SDS011;8446;50.998;6.250;2024-01-25T14:21:23;13.47;;;3.60;;
16665;SDS011;8446;50.998;6.250;2024-01-25T14:23:55;17.47;;;3.63;;
16665;SDS011;8446;50.998;6.250;2024-01-25T14:26:27;25.13;;;3.83;;
16665;SDS011;8446;50.998;6.250;2024-01-25T14:28:58;24.13;;;3.40;;
16665;SDS011;8446;50.998;6.250;2024-01-25T14:31:30;18.80;;;3.73;;
16665;SDS011;8446;50.998;6.250;2024-01-25T14:34:02;21.77;;;3.40;;
16665;SDS011;8446;50.998;6.250;2024-01-25T14:36:35;20.53;;;3.47;;
16665;SDS011;8446;50.998;6.250;2024-01-25T14:39:07;25.50;;;3.27;;
16665;SDS011;8446;50.998;6.250;2024-01-25T14:41:38;11.10;;;3.23;;
16665;SDS011;8446;50.998;6.250;2024-01-25T14:44:12;19.60;;;3.47;;
16665;SDS011;8446;50.998;6.250;2024-01-25T14:46:43;11.03;;;2.77;;
16665;SDS011;8446;50.998;6.250;2024-01-25T14:49:15;6.93;;;2.30;;
16665;SDS011;8446;50.998;6.250;2024-01-25T14:51:48;17.53;;;2.60;;
16665;SDS011;8446;50.998;6.250;2024-01-25T14:54:20;15.77;;;3.00;;
16665;SDS011;8446;50.998;6.250;2024-01-25T14:56:52;21.50;;;4.13;;
16665;SDS011;8446;50.998;6.250;2024-01-25T14:59:23;15.63;;;2.70;;
16665;SDS011;8446;50.998;6.250;2024-01-25T15:01:57;24.47;;;4.23;;
16665;SDS011;8446;50.998;6.250;2024-01-25T15:04:29;16.00;;;3.30;;
16665;SDS011;8446;50.998;6.250;2024-01-25T15:07:02;10.13;;;2.57;;
16665;SDS011;8446;50.998;6.250;2024-01-25T15:09:34;15.73;;;3.47;;
16665;SDS011;8446;50.998;6.250;2024-01-25T15:12:07;14.30;;;3.83;;
16665;SDS011;8446;50.998;6.250;2024-01-25T15:14:39;30.07;;;3.80;;
16665;SDS011;8446;50.998;6.250;2024-01-25T15:17:11;12.37;;;3.13;;
16665;SDS011;8446;50.998;6.250;2024-01-25T15:19:42;22.73;;;2.90;;